Dades meteomassalio
Diari Summary for Febrer 10, 2018 Units:  English    Metric   Both
« Previous Day
Next Day »
Diari Semanal Mensual Anual Personalitzat
  Maxima: Minima: Mijana:
Temperatura: TemperatureF °F 37.0 °F 41.7 °F
Rosada: DewpointF °F 29.8 °F 32.6 °F
Humitat: Humidity % 54 % 70 %
Velocitat del vent: WindSpeedMPH mph 8.1 mph 20.2 mph
Racha vent: WindSpeedGustMPH mph - -
Vent:- - WNW
Pressio: PressureIn in 30.14 in -
Pluja: 0.00 in    
Historical Graphs
 
 
Tabular Data for Febrer 10, 2018
Time Temperature Dew Point Pressure Wind Wind Speed Wind Gust Humidity Rainfall Rate (Hourly) solar Conditions
TemperatureF °F DewpointF °F PressureIn in Calm     Humidity % HourlyPrecipIn in SolarRadiationWatts/m^2 W/m2 Conditions
00:04 41.0 °F 35.0 °F 30.19 in NNW 21.0 mph 21.0 mph 79 % 0.00 in 0.0 W/m2 RA
00:09 41.0 °F 35.0 °F 30.20 in NNW 26.5 mph 26.5 mph 79 % 0.00 in 0.0 W/m2 CLR
00:14 41.0 °F 35.0 °F 30.20 in NW 15.0 mph 15.0 mph 79 % 0.00 in 0.0 W/m2 CLR
00:19 41.0 °F 34.7 °F 30.20 in NNW 23.0 mph 23.0 mph 78 % 0.00 in 0.0 W/m2 CLR
00:24 41.0 °F 34.3 °F 30.21 in North 25.0 mph 25.0 mph 77 % 0.00 in 0.0 W/m2 CLR
00:29 41.0 °F 34.0 °F 30.21 in NNW 21.9 mph 21.9 mph 76 % 0.00 in 0.0 W/m2 CLR
00:34 40.0 °F 33.0 °F 30.21 in North 22.0 mph 22.0 mph 76 % 0.00 in 0.0 W/m2 CLR
00:39 40.0 °F 32.7 °F 30.21 in North 21.9 mph 21.9 mph 75 % 0.00 in 0.0 W/m2 CLR
00:44 40.0 °F 32.7 °F 30.21 in NNW 21.0 mph 21.0 mph 75 % 0.00 in 0.0 W/m2 CLR
00:49 40.0 °F 32.7 °F 30.21 in NNW 20.7 mph 20.7 mph 75 % 0.00 in 0.0 W/m2 CLR
00:54 40.0 °F 32.7 °F 30.21 in NW 28.8 mph 28.8 mph 75 % 0.00 in 0.0 W/m2 CLR
00:59 40.0 °F 32.7 °F 30.21 in NNW 23.0 mph 23.0 mph 75 % 0.00 in 0.0 W/m2 CLR
01:04 40.0 °F 32.7 °F 30.21 in NW 25.3 mph 25.3 mph 75 % 0.00 in 0.0 W/m2 CLR
01:09 40.0 °F 32.7 °F 30.21 in NW 23.0 mph 23.0 mph 75 % 0.00 in 0.0 W/m2 CLR
01:14 40.0 °F 33.0 °F 30.21 in North 20.7 mph 20.7 mph 76 % 0.00 in 0.0 W/m2 CLR
01:19 40.0 °F 33.0 °F 30.21 in North 20.7 mph 20.7 mph 76 % 0.00 in 0.0 W/m2 CLR
01:24 40.0 °F 33.0 °F 30.21 in NW 18.4 mph 18.4 mph 76 % 0.00 in 0.0 W/m2 CLR
01:29 40.0 °F 32.7 °F 30.22 in NNW 28.8 mph 28.8 mph 75 % 0.00 in 0.0 W/m2 CLR
01:34 40.0 °F 32.7 °F 30.22 in NNW 24.2 mph 24.2 mph 75 % 0.00 in 0.0 W/m2 CLR
01:39 40.0 °F 32.7 °F 30.21 in NNW 23.0 mph 23.0 mph 75 % 0.00 in 0.0 W/m2 CLR
01:44 40.0 °F 32.7 °F 30.21 in North 26.0 mph 26.0 mph 75 % 0.00 in 0.0 W/m2 CLR
01:49 39.0 °F 31.7 °F 30.21 in NW 28.8 mph 28.8 mph 75 % 0.00 in 0.0 W/m2 CLR
01:54 39.0 °F 31.7 °F 30.21 in NW 27.6 mph 27.6 mph 75 % 0.00 in 0.0 W/m2 CLR
01:59 39.0 °F 31.7 °F 30.21 in NNW 22.0 mph 22.0 mph 75 % 0.00 in 0.0 W/m2 CLR
02:04 39.0 °F 31.7 °F 30.21 in NNW 21.9 mph 21.9 mph 75 % 0.00 in 0.0 W/m2 CLR
02:09 39.0 °F 31.4 °F 30.21 in NW 21.0 mph 21.0 mph 74 % 0.00 in 0.0 W/m2 CLR
02:14 39.0 °F 31.4 °F 30.21 in NNW 22.0 mph 22.0 mph 74 % 0.00 in 0.0 W/m2 CLR
02:20 39.0 °F 31.4 °F 30.21 in NNW 13.8 mph 13.8 mph 74 % 0.00 in 0.0 W/m2 CLR
02:25 39.0 °F 31.7 °F 30.21 in North 24.0 mph 24.0 mph 75 % 0.00 in 0.0 W/m2 CLR
02:30 39.0 °F 31.7 °F 30.21 in NW 17.3 mph 17.3 mph 75 % 0.00 in 0.0 W/m2 CLR
02:35 39.0 °F 31.7 °F 30.21 in NNW 19.6 mph 21.5 mph 75 % 0.00 in 0.0 W/m2 CLR
02:40 39.0 °F 31.7 °F 30.21 in NNW 19.6 mph 19.6 mph 75 % 0.00 in 0.0 W/m2 CLR
02:45 38.0 °F 30.8 °F 30.21 in WNW 19.6 mph 19.6 mph 75 % 0.00 in 0.0 W/m2 CLR
02:50 38.0 °F 30.4 °F 30.21 in NW 22.0 mph 22.0 mph 74 % 0.00 in 0.0 W/m2 CLR
02:55 39.0 °F 31.4 °F 30.21 in NNW 18.4 mph 18.4 mph 74 % 0.00 in 0.0 W/m2 CLR
03:00 39.0 °F 31.4 °F 30.21 in NW 15.0 mph 15.0 mph 74 % 0.00 in 0.0 W/m2 CLR
03:05 38.0 °F 30.4 °F 30.21 in NW 16.1 mph 16.1 mph 74 % 0.00 in 0.0 W/m2 CLR
03:10 38.0 °F 30.4 °F 30.20 in NNW 25.3 mph 25.3 mph 74 % 0.00 in 0.0 W/m2 CLR
03:15 38.0 °F 30.8 °F 30.20 in North 23.0 mph 23.0 mph 75 % 0.00 in 0.0 W/m2 CLR
03:20 38.0 °F 30.4 °F 30.20 in North 24.2 mph 24.2 mph 74 % 0.00 in 0.0 W/m2 CLR
03:25 38.0 °F 30.4 °F 30.19 in NNW 28.8 mph 28.8 mph 74 % 0.00 in 0.0 W/m2 CLR
03:30 38.0 °F 30.4 °F 30.19 in NNW 26.5 mph 26.5 mph 74 % 0.00 in 0.0 W/m2 CLR
03:35 38.0 °F 30.4 °F 30.19 in NNW 28.8 mph 28.8 mph 74 % 0.00 in 0.0 W/m2 CLR
03:40 38.0 °F 30.4 °F 30.19 in NNW 17.3 mph 18.4 mph 74 % 0.00 in 0.0 W/m2 CLR
03:45 38.0 °F 30.4 °F 30.19 in North 23.0 mph 23.0 mph 74 % 0.00 in 0.0 W/m2 CLR
03:50 38.0 °F 30.4 °F 30.18 in North 21.9 mph 21.9 mph 74 % 0.00 in 0.0 W/m2 CLR
03:55 38.0 °F 30.4 °F 30.18 in North 20.0 mph 20.0 mph 74 % 0.00 in 0.0 W/m2 CLR
04:00 38.0 °F 30.8 °F 30.18 in North 19.6 mph 19.6 mph 75 % 0.00 in 0.0 W/m2 CLR
04:05 38.0 °F 30.8 °F 30.19 in NNW 19.6 mph 19.6 mph 75 % 0.00 in 0.0 W/m2 CLR
04:10 38.0 °F 30.8 °F 30.19 in NW 22.0 mph 22.0 mph 75 % 0.00 in 0.0 W/m2 CLR
04:15 38.0 °F 30.8 °F 30.19 in NW 15.0 mph 15.0 mph 75 % 0.00 in 0.0 W/m2 CLR
04:20 38.0 °F 30.8 °F 30.19 in NNW 26.5 mph 26.5 mph 75 % 0.00 in 0.0 W/m2 CLR
04:25 38.0 °F 30.8 °F 30.19 in NNW 19.6 mph 19.6 mph 75 % 0.00 in 0.0 W/m2 CLR
04:30 38.0 °F 30.8 °F 30.19 in NNW 25.3 mph 25.3 mph 75 % 0.00 in 0.0 W/m2 CLR
04:35 38.0 °F 30.8 °F 30.19 in North 19.6 mph 19.6 mph 75 % 0.00 in 0.0 W/m2 CLR
04:40 38.0 °F 30.8 °F 30.19 in NW 17.3 mph 17.3 mph 75 % 0.00 in 0.0 W/m2 CLR
04:45 38.0 °F 30.8 °F 30.19 in NNW 21.9 mph 21.9 mph 75 % 0.00 in 0.0 W/m2 CLR
04:50 38.0 °F 30.8 °F 30.19 in North 20.7 mph 20.7 mph 75 % 0.00 in 0.0 W/m2 CLR
04:55 38.0 °F 30.8 °F 30.19 in North 27.0 mph 27.0 mph 75 % 0.00 in 0.0 W/m2 CLR
05:00 38.0 °F 30.8 °F 30.19 in NNW 26.5 mph 26.5 mph 75 % 0.00 in 0.0 W/m2 CLR
05:05 38.0 °F 31.1 °F 30.19 in NNW 21.9 mph 21.9 mph 76 % 0.00 in 0.0 W/m2 CLR
05:10 38.0 °F 31.1 °F 30.19 in North 25.3 mph 25.3 mph 76 % 0.00 in 0.0 W/m2 CLR
05:15 38.0 °F 31.1 °F 30.19 in NW 20.7 mph 20.7 mph 76 % 0.00 in 0.0 W/m2 CLR
05:20 38.0 °F 31.1 °F 30.20 in NNW 19.6 mph 19.6 mph 76 % 0.00 in 0.0 W/m2 CLR
05:25 38.0 °F 31.1 °F 30.20 in North 21.9 mph 21.9 mph 76 % 0.00 in 0.0 W/m2 CLR
05:30 38.0 °F 31.1 °F 30.20 in North 17.3 mph 17.3 mph 76 % 0.00 in 0.0 W/m2 CLR
05:35 38.0 °F 31.1 °F 30.20 in North 25.3 mph 25.3 mph 76 % 0.00 in 0.0 W/m2 CLR
05:40 38.0 °F 31.1 °F 30.20 in NNW 19.6 mph 19.6 mph 76 % 0.00 in 0.0 W/m2 CLR
05:45 38.0 °F 31.1 °F 30.20 in NNW 25.3 mph 25.3 mph 76 % 0.00 in 0.0 W/m2 CLR
05:50 37.0 °F 30.1 °F 30.20 in North 19.0 mph 19.0 mph 76 % 0.00 in 0.0 W/m2 CLR
05:55 37.0 °F 30.1 °F 30.19 in NNW 26.5 mph 26.5 mph 76 % 0.00 in 0.0 W/m2 CLR
06:00 37.0 °F 30.1 °F 30.20 in NNW 26.5 mph 26.5 mph 76 % 0.00 in 0.0 W/m2 CLR
06:05 37.0 °F 30.5 °F 30.19 in North 18.4 mph 18.4 mph 77 % 0.00 in 0.0 W/m2 CLR
06:10 37.0 °F 30.5 °F 30.20 in NNW 15.0 mph 15.0 mph 77 % 0.00 in 0.0 W/m2 CLR
06:15 37.0 °F 30.5 °F 30.19 in NNW 16.1 mph 16.1 mph 77 % 0.00 in 0.0 W/m2 CLR
06:20 37.0 °F 30.5 °F 30.19 in North 17.3 mph 17.3 mph 77 % 0.00 in 0.0 W/m2 CLR
06:25 37.0 °F 30.1 °F 30.19 in NNW 19.6 mph 19.6 mph 76 % 0.00 in 0.0 W/m2 CLR
06:30 37.0 °F 29.8 °F 30.19 in NW 17.3 mph 17.3 mph 75 % 0.00 in 0.0 W/m2 CLR
06:35 37.0 °F 30.1 °F 30.19 in NNW 12.7 mph 12.7 mph 76 % 0.00 in 0.0 W/m2 CLR
06:40 37.0 °F 30.1 °F 30.19 in NNW 21.0 mph 21.0 mph 76 % 0.00 in 0.0 W/m2 CLR
06:45 37.0 °F 29.8 °F 30.19 in NW 23.0 mph 23.0 mph 75 % 0.00 in 0.0 W/m2 CLR
06:50 37.0 °F 29.8 °F 30.19 in NNW 14.0 mph 14.0 mph 75 % 0.00 in 0.0 W/m2 CLR
06:55 37.0 °F 30.1 °F 30.19 in North 18.4 mph 18.4 mph 76 % 0.00 in 0.0 W/m2 CLR
07:00 37.0 °F 30.1 °F 30.19 in North 19.6 mph 19.6 mph 76 % 0.00 in 0.0 W/m2 CLR
07:05 37.0 °F 30.5 °F 30.18 in North 17.3 mph 17.3 mph 77 % 0.00 in 0.0 W/m2 CLR
07:10 37.0 °F 30.5 °F 30.18 in NNW 23.0 mph 23.0 mph 77 % 0.00 in 0.0 W/m2 CLR
07:15 37.0 °F 30.5 °F 30.18 in NW 18.4 mph 18.4 mph 77 % 0.00 in 0.0 W/m2 CLR
07:20 37.0 °F 30.5 °F 30.19 in NNW 23.0 mph 23.0 mph 77 % 0.00 in 0.0 W/m2 CLR
07:25 37.0 °F 30.5 °F 30.19 in NNW 15.0 mph 15.0 mph 77 % 0.00 in 0.0 W/m2 CLR
07:30 37.0 °F 30.5 °F 30.19 in NNW 20.7 mph 20.7 mph 77 % 0.00 in 0.0 W/m2 CLR
07:35 37.0 °F 30.5 °F 30.20 in North 21.9 mph 21.9 mph 77 % 0.00 in 0.0 W/m2 CLR
07:40 37.0 °F 30.5 °F 30.20 in NNW 24.2 mph 24.2 mph 77 % 0.00 in 0.0 W/m2 CLR
07:45 37.0 °F 30.5 °F 30.20 in North 19.6 mph 19.6 mph 77 % 0.00 in 0.0 W/m2 CLR
07:50 37.0 °F 30.5 °F 30.20 in North 19.6 mph 19.6 mph 77 % 0.00 in 0.0 W/m2 CLR
07:55 37.0 °F 30.8 °F 30.20 in North 16.1 mph 16.1 mph 78 % 0.00 in 0.0 W/m2 CLR
08:00 37.0 °F 30.8 °F 30.20 in NNW 20.0 mph 20.0 mph 78 % 0.00 in 5.0 W/m2 OVC
08:05 37.0 °F 30.8 °F 30.20 in North 15.0 mph 15.0 mph 78 % 0.00 in 7.0 W/m2 BKN
08:10 37.0 °F 30.8 °F 30.21 in North 15.0 mph 15.0 mph 78 % 0.00 in 9.0 W/m2 BKN
08:15 37.0 °F 30.8 °F 30.21 in NNW 19.6 mph 19.6 mph 78 % 0.00 in 12.0 W/m2 BKN
08:20 37.0 °F 30.8 °F 30.21 in North 16.1 mph 16.1 mph 78 % 0.00 in 16.0 W/m2 BKN
08:25 37.0 °F 30.8 °F 30.21 in North 16.1 mph 16.1 mph 78 % 0.00 in 18.0 W/m2 BKN
08:30 37.0 °F 30.8 °F 30.21 in NNW 23.0 mph 23.0 mph 78 % 0.00 in 23.0 W/m2 BKN
08:35 37.0 °F 30.8 °F 30.21 in North 18.4 mph 18.4 mph 78 % 0.00 in 30.0 W/m2 BKN
08:40 37.0 °F 30.8 °F 30.22 in NNW 26.5 mph 26.5 mph 78 % 0.00 in 37.0 W/m2 BKN
08:46 37.0 °F 30.5 °F 30.22 in North 23.0 mph 23.0 mph 77 % 0.00 in 46.0 W/m2 BKN
08:51 38.0 °F 31.4 °F 30.22 in North 19.6 mph 19.6 mph 77 % 0.00 in 60.0 W/m2 SCT
08:56 38.0 °F 31.4 °F 30.22 in NNW 18.4 mph 18.4 mph 77 % 0.00 in 77.0 W/m2 FEW
09:01 38.0 °F 31.4 °F 30.21 in NNW 21.9 mph 21.9 mph 77 % 0.00 in 95.0 W/m2 CLR
09:06 38.0 °F 31.4 °F 30.21 in NNW 20.7 mph 20.7 mph 77 % 0.00 in 113.0 W/m2 CLR
09:11 38.0 °F 31.4 °F 30.21 in North 23.0 mph 23.0 mph 77 % 0.00 in 130.0 W/m2 CLR
09:16 38.0 °F 31.1 °F 30.21 in North 20.7 mph 20.7 mph 76 % 0.00 in 134.0 W/m2 CLR
09:21 39.0 °F 32.1 °F 30.22 in NNW 19.0 mph 19.0 mph 76 % 0.00 in 162.0 W/m2 CLR
09:26 39.0 °F 32.1 °F 30.22 in North 17.0 mph 17.0 mph 76 % 0.00 in 183.0 W/m2 CLR
09:31 39.0 °F 32.1 °F 30.21 in North 21.0 mph 21.0 mph 76 % 0.00 in 137.0 W/m2 CLR
09:36 39.0 °F 32.1 °F 30.21 in NNW 21.9 mph 21.9 mph 76 % 0.00 in 218.0 W/m2 CLR
09:41 39.0 °F 31.7 °F 30.21 in North 26.5 mph 26.5 mph 75 % 0.00 in 234.0 W/m2 CLR
09:46 40.0 °F 33.0 °F 30.21 in North 19.0 mph 19.0 mph 76 % 0.00 in 250.0 W/m2 CLR
09:51 40.0 °F 32.7 °F 30.21 in NNW 21.9 mph 21.9 mph 75 % 0.00 in 267.0 W/m2 CLR
09:56 40.0 °F 32.4 °F 30.21 in NNW 23.0 mph 23.0 mph 74 % 0.00 in 281.0 W/m2 CLR
10:01 40.0 °F 32.4 °F 30.22 in North 23.0 mph 23.0 mph 74 % 0.00 in 294.0 W/m2 CLR
10:06 41.0 °F 33.0 °F 30.22 in NNW 24.2 mph 24.2 mph 73 % 0.00 in 308.0 W/m2 CLR
10:11 41.0 °F 32.7 °F 30.21 in North 26.5 mph 26.5 mph 72 % 0.00 in 323.0 W/m2 CLR
10:16 41.0 °F 32.7 °F 30.21 in North 31.1 mph 31.1 mph 72 % 0.00 in 336.0 W/m2 CLR
10:21 41.0 °F 32.7 °F 30.21 in North 23.0 mph 23.0 mph 72 % 0.00 in 350.0 W/m2 CLR
10:26 42.0 °F 33.3 °F 30.21 in NNW 30.0 mph 30.0 mph 71 % 0.00 in 362.0 W/m2 CLR
10:31 42.0 °F 33.6 °F 30.21 in NNE 19.6 mph 19.6 mph 72 % 0.00 in 381.0 W/m2 CLR
10:36 42.0 °F 33.3 °F 30.21 in North 26.5 mph 26.5 mph 71 % 0.00 in 401.0 W/m2 CLR
10:41 42.0 °F 33.3 °F 30.20 in NNW 23.0 mph 23.0 mph 71 % 0.00 in 406.0 W/m2 CLR
10:46 42.0 °F 32.9 °F 30.21 in NNE 24.2 mph 24.2 mph 70 % 0.00 in 424.0 W/m2 CLR
10:51 43.0 °F 33.9 °F 30.21 in North 27.6 mph 27.6 mph 70 % 0.00 in 429.0 W/m2 CLR
10:56 43.0 °F 33.5 °F 30.21 in North 32.2 mph 32.2 mph 69 % 0.00 in 436.0 W/m2 CLR
11:01 43.0 °F 33.5 °F 30.21 in North 28.8 mph 28.8 mph 69 % 0.00 in 446.0 W/m2 CLR
11:06 43.0 °F 33.9 °F 30.21 in NNE 17.3 mph 17.3 mph 70 % 0.00 in 459.0 W/m2 CLR
11:11 44.0 °F 33.7 °F 30.22 in NNE 27.6 mph 27.6 mph 67 % 0.00 in 478.0 W/m2 CLR
11:16 44.0 °F 34.5 °F 30.22 in NE 26.5 mph 26.5 mph 69 % 0.00 in 512.0 W/m2 CLR
11:21 44.0 °F 33.7 °F 30.23 in NNE 23.0 mph 23.0 mph 67 % 0.00 in 98.0 W/m2 CLR
11:26 44.0 °F 34.5 °F 30.23 in NNE 18.4 mph 18.4 mph 69 % 0.00 in 568.0 W/m2 CLR
11:31 44.0 °F 34.1 °F 30.22 in North 17.0 mph 17.0 mph 68 % 0.00 in 519.0 W/m2 CLR
11:36 44.0 °F 33.0 °F 30.23 in NNE 26.5 mph 26.5 mph 65 % 0.00 in 524.0 W/m2 CLR
11:41 44.0 °F 33.4 °F 30.23 in North 26.5 mph 26.5 mph 66 % 0.00 in 564.0 W/m2 CLR
11:46 45.0 °F 33.9 °F 30.22 in NNW 26.5 mph 26.5 mph 65 % 0.00 in 545.0 W/m2 CLR
11:51 46.0 °F 35.3 °F 30.22 in NNE 26.5 mph 26.5 mph 66 % 0.00 in 526.0 W/m2 CLR
11:56 45.0 °F 34.3 °F 30.22 in North 26.5 mph 26.5 mph 66 % 0.00 in 573.0 W/m2 CLR
12:01 46.0 °F 35.7 °F 30.22 in NNW 26.5 mph 26.5 mph 67 % 0.00 in 596.0 W/m2 CLR
12:06 46.0 °F 34.9 °F 30.22 in North 26.5 mph 26.5 mph 65 % 0.00 in 538.0 W/m2 CLR
12:11 46.0 °F 34.9 °F 30.21 in NNW 29.9 mph 29.9 mph 65 % 0.00 in 621.0 W/m2 CLR
12:16 47.0 °F 35.4 °F 30.21 in NNE 16.1 mph 16.1 mph 64 % 0.00 in 682.0 W/m2 CLR
12:21 46.0 °F 32.9 °F 30.22 in NNE 21.9 mph 21.9 mph 60 % 0.00 in 151.0 W/m2 CLR
12:26 45.0 °F 31.5 °F 30.21 in NNE 23.0 mph 23.0 mph 59 % 0.00 in 594.0 W/m2 CLR
12:31 47.0 °F 33.0 °F 30.21 in NNE 21.0 mph 21.0 mph 58 % 0.00 in 615.0 W/m2 CLR
12:36 47.0 °F 34.2 °F 30.21 in North 16.1 mph 16.1 mph 61 % 0.00 in 645.0 W/m2 CLR
12:41 46.0 °F 32.5 °F 30.20 in NNE 16.1 mph 16.1 mph 59 % 0.00 in 675.0 W/m2 CLR
12:46 47.0 °F 31.2 °F 30.20 in North 26.5 mph 26.5 mph 54 % 0.00 in 659.0 W/m2 CLR
12:51 48.0 °F 32.1 °F 30.20 in NNW 30.0 mph 30.0 mph 54 % 0.00 in 684.0 W/m2 CLR
12:56 49.0 °F 34.0 °F 30.20 in NNW 19.6 mph 19.6 mph 56 % 0.00 in 744.0 W/m2 CLR
13:01 47.0 °F 33.8 °F 30.20 in NNW 26.0 mph 26.0 mph 60 % 0.00 in 134.0 W/m2 CLR
13:06 46.0 °F 32.9 °F 30.20 in North 23.0 mph 23.0 mph 60 % 0.00 in 297.0 W/m2 CLR
13:11 48.0 °F 36.0 °F 30.20 in North 19.6 mph 19.6 mph 63 % 0.00 in 812.0 W/m2 CLR
13:16 48.0 °F 34.8 °F 30.20 in North 25.3 mph 25.3 mph 60 % 0.00 in 290.0 W/m2 CLR
13:21 47.0 °F 34.6 °F 30.19 in North 16.0 mph 16.0 mph 62 % 0.00 in 816.0 W/m2 CLR
13:26 48.0 °F 35.2 °F 30.20 in NNW 19.0 mph 19.0 mph 61 % 0.00 in 241.0 W/m2 CLR
13:31 47.0 °F 33.4 °F 30.19 in North 19.6 mph 19.6 mph 59 % 0.00 in 202.0 W/m2 CLR
13:36 46.0 °F 32.9 °F 30.19 in North 25.3 mph 25.3 mph 60 % 0.00 in 199.0 W/m2 CLR
13:41 46.0 °F 33.3 °F 30.18 in NNE 19.6 mph 19.6 mph 61 % 0.00 in 237.0 W/m2 CLR
13:46 47.0 °F 34.2 °F 30.18 in North 20.7 mph 20.7 mph 61 % 0.00 in 148.0 W/m2 CLR
13:51 46.0 °F 33.3 °F 30.18 in NNE 19.6 mph 19.6 mph 61 % 0.00 in 712.0 W/m2 CLR
13:56 48.0 °F 35.2 °F 30.18 in NNE 21.9 mph 21.9 mph 61 % 0.00 in 717.0 W/m2 CLR
14:01 48.0 °F 35.2 °F 30.18 in North 19.6 mph 19.6 mph 61 % 0.00 in 137.0 W/m2 CLR
14:06 48.0 °F 36.0 °F 30.17 in North 24.2 mph 24.2 mph 63 % 0.00 in 626.0 W/m2 CLR
14:11 48.0 °F 35.2 °F 30.17 in North 24.2 mph 24.2 mph 61 % 0.00 in 598.0 W/m2 CLR
14:16 49.0 °F 36.9 °F 30.16 in NNW 26.5 mph 26.5 mph 63 % 0.00 in 596.0 W/m2 CLR
14:21 49.0 °F 36.5 °F 30.16 in North 21.0 mph 21.0 mph 62 % 0.00 in 577.0 W/m2 CLR
14:26 49.0 °F 36.5 °F 30.16 in NNW 21.9 mph 21.9 mph 62 % 0.00 in 570.0 W/m2 CLR
14:31 49.0 °F 36.5 °F 30.16 in NNW 24.2 mph 24.2 mph 62 % 0.00 in 594.0 W/m2 CLR
14:36 49.0 °F 36.1 °F 30.16 in NNW 25.0 mph 25.0 mph 61 % 0.00 in 564.0 W/m2 CLR
14:42 50.0 °F 37.5 °F 30.16 in NW 26.5 mph 26.5 mph 62 % 0.00 in 554.0 W/m2 CLR
14:47 50.0 °F 37.1 °F 30.16 in North 29.9 mph 29.9 mph 61 % 0.00 in 571.0 W/m2 CLR
14:52 50.0 °F 36.7 °F 30.15 in North 23.0 mph 23.0 mph 60 % 0.00 in 132.0 W/m2 CLR
14:57 49.0 °F 35.3 °F 30.15 in NNW 23.0 mph 23.0 mph 59 % 0.00 in 571.0 W/m2 CLR
15:02 49.0 °F 35.3 °F 30.15 in North 16.1 mph 16.1 mph 59 % 0.00 in 555.0 W/m2 CLR
15:07 49.0 °F 34.9 °F 30.15 in North 23.0 mph 23.0 mph 58 % 0.00 in 559.0 W/m2 CLR
15:12 51.0 °F 36.7 °F 30.15 in North 20.7 mph 20.7 mph 58 % 0.00 in 555.0 W/m2 CLR
15:17 51.0 °F 36.7 °F 30.14 in North 18.4 mph 18.4 mph 58 % 0.00 in 573.0 W/m2 CLR
15:22 51.0 °F 36.3 °F 30.14 in NNW 20.7 mph 20.7 mph 57 % 0.00 in 513.0 W/m2 CLR
15:27 50.0 °F 35.4 °F 30.14 in NNW 27.6 mph 27.6 mph 57 % 0.00 in 494.0 W/m2 CLR
15:32 51.0 °F 36.3 °F 30.14 in North 24.2 mph 24.2 mph 57 % 0.00 in 473.0 W/m2 CLR
15:37 50.0 °F 35.4 °F 30.14 in North 19.6 mph 19.6 mph 57 % 0.00 in 56.0 W/m2 CLR
15:42 49.0 °F 34.4 °F 30.14 in NNW 26.5 mph 26.5 mph 57 % 0.00 in 432.0 W/m2 FEW
15:47 50.0 °F 35.4 °F 30.14 in NW 15.0 mph 15.0 mph 57 % 0.00 in 420.0 W/m2 FEW
15:52 49.0 °F 34.4 °F 30.14 in NNW 20.7 mph 20.7 mph 57 % 0.00 in 408.0 W/m2 CLR
15:57 50.0 °F 34.9 °F 30.14 in North 21.9 mph 21.9 mph 56 % 0.00 in 396.0 W/m2 CLR
16:02 49.0 °F 33.5 °F 30.14 in North 23.0 mph 23.0 mph 55 % 0.00 in 378.0 W/m2 CLR
16:07 50.0 °F 34.5 °F 30.14 in North 21.9 mph 21.9 mph 55 % 0.00 in 367.0 W/m2 CLR
16:12 50.0 °F 34.9 °F 30.14 in North 21.0 mph 21.0 mph 56 % 0.00 in 359.0 W/m2 CLR
16:17 49.0 °F 33.5 °F 30.14 in North 19.6 mph 19.6 mph 55 % 0.00 in 341.0 W/m2 CLR
16:22 49.0 °F 34.0 °F 30.14 in NNW 30.0 mph 30.0 mph 56 % 0.00 in 330.0 W/m2 CLR
16:27 49.0 °F 34.0 °F 30.14 in North 21.9 mph 21.9 mph 56 % 0.00 in 318.0 W/m2 CLR
16:32 49.0 °F 34.4 °F 30.14 in North 19.6 mph 19.6 mph 57 % 0.00 in 301.0 W/m2 CLR
16:37 48.0 °F 33.5 °F 30.14 in NNW 21.9 mph 21.9 mph 57 % 0.00 in 51.0 W/m2 CLR
16:42 48.0 °F 33.9 °F 30.14 in NNW 21.0 mph 21.0 mph 58 % 0.00 in 265.0 W/m2 CLR
16:47 49.0 °F 34.0 °F 30.14 in NNW 28.8 mph 28.8 mph 56 % 0.00 in 250.0 W/m2 CLR
16:52 48.0 °F 33.0 °F 30.14 in NNW 20.7 mph 20.7 mph 56 % 0.00 in 234.0 W/m2 CLR
16:57 48.0 °F 32.6 °F 30.14 in North 25.3 mph 25.3 mph 55 % 0.00 in 174.0 W/m2 CLR
17:02 48.0 °F 33.0 °F 30.14 in NW 23.0 mph 23.0 mph 56 % 0.00 in 199.0 W/m2 CLR
17:07 48.0 °F 33.5 °F 30.14 in North 19.6 mph 19.6 mph 57 % 0.00 in 179.0 W/m2 CLR
17:12 48.0 °F 34.3 °F 30.14 in NW 27.6 mph 27.6 mph 59 % 0.00 in 163.0 W/m2 CLR
17:17 47.0 °F 33.8 °F 30.14 in North 27.0 mph 27.0 mph 60 % 0.00 in 116.0 W/m2 CLR
17:22 47.0 °F 34.2 °F 30.15 in North 17.3 mph 17.3 mph 61 % 0.00 in 44.0 W/m2 FEW
17:27 47.0 °F 33.8 °F 30.15 in NNW 26.5 mph 26.5 mph 60 % 0.00 in 39.0 W/m2 BKN
17:32 46.0 °F 32.9 °F 30.15 in NNW 26.5 mph 26.5 mph 60 % 0.00 in 28.0 W/m2 BKN
17:37 46.0 °F 32.9 °F 30.15 in NNW 19.6 mph 19.6 mph 60 % 0.00 in 40.0 W/m2 BKN
17:42 46.0 °F 33.3 °F 30.16 in North 26.5 mph 26.5 mph 61 % 0.00 in 58.0 W/m2 SCT
17:47 46.0 °F 33.3 °F 30.16 in NW 19.6 mph 19.6 mph 61 % 0.00 in 63.0 W/m2 SCT
17:52 46.0 °F 33.3 °F 30.16 in NNW 17.3 mph 17.3 mph 61 % 0.00 in 47.0 W/m2 SCT
17:57 46.0 °F 33.7 °F 30.16 in NNW 20.7 mph 20.7 mph 62 % 0.00 in 39.0 W/m2 BKN
18:02 45.0 °F 33.2 °F 30.16 in North 23.0 mph 23.0 mph 63 % 0.00 in 21.0 W/m2 BKN
18:07 45.0 °F 33.5 °F 30.16 in NNW 19.6 mph 19.6 mph 64 % 0.00 in 16.0 W/m2 BKN
18:12 45.0 °F 33.9 °F 30.16 in NNW 20.0 mph 20.0 mph 65 % 0.00 in 12.0 W/m2 BKN
18:17 45.0 °F 33.9 °F 30.16 in North 24.2 mph 24.2 mph 65 % 0.00 in 11.0 W/m2 BKN
18:22 44.0 °F 33.4 °F 30.16 in NNW 19.6 mph 19.6 mph 66 % 0.00 in 7.0 W/m2 BKN
18:27 44.0 °F 33.4 °F 30.17 in NW 19.6 mph 19.6 mph 66 % 0.00 in 5.0 W/m2 OVC
18:32 44.0 °F 33.4 °F 30.17 in NW 19.6 mph 19.6 mph 66 % 0.00 in 0.0 W/m2 OVC
18:37 44.0 °F 33.4 °F 30.18 in NNW 21.0 mph 21.0 mph 66 % 0.00 in 0.0 W/m2 OVC
18:42 44.0 °F 33.4 °F 30.18 in NNW 16.1 mph 16.1 mph 66 % 0.00 in 0.0 W/m2 CLR
18:47 44.0 °F 33.7 °F 30.18 in NNW 18.4 mph 18.4 mph 67 % 0.00 in 0.0 W/m2 CLR
18:52 43.0 °F 33.2 °F 30.18 in NNW 18.4 mph 18.4 mph 68 % 0.00 in 0.0 W/m2 CLR
18:57 43.0 °F 33.2 °F 30.18 in NNW 19.6 mph 19.6 mph 68 % 0.00 in 0.0 W/m2 CLR
19:02 43.0 °F 33.5 °F 30.19 in North 16.1 mph 16.1 mph 69 % 0.00 in 0.0 W/m2 CLR
19:07 43.0 °F 33.5 °F 30.19 in NW 17.3 mph 17.3 mph 69 % 0.00 in 0.0 W/m2 CLR
19:12 43.0 °F 33.5 °F 30.19 in NNW 19.6 mph 19.6 mph 69 % 0.00 in 0.0 W/m2 CLR
19:17 43.0 °F 33.9 °F 30.19 in NNW 27.6 mph 27.6 mph 70 % 0.00 in 0.0 W/m2 CLR
19:22 43.0 °F 33.9 °F 30.19 in North 21.9 mph 21.9 mph 70 % 0.00 in 0.0 W/m2 CLR
19:27 43.0 °F 33.9 °F 30.19 in NW 16.1 mph 16.1 mph 70 % 0.00 in 0.0 W/m2 CLR
19:32 42.0 °F 32.9 °F 30.19 in WNW 13.8 mph 13.8 mph 70 % 0.00 in 0.0 W/m2 CLR
19:37 42.0 °F 32.9 °F 30.20 in NW 15.0 mph 15.0 mph 70 % 0.00 in 0.0 W/m2 CLR
19:42 42.0 °F 32.9 °F 30.20 in NW 18.0 mph 18.0 mph 70 % 0.00 in 0.0 W/m2 CLR
19:47 42.0 °F 32.9 °F 30.20 in NNW 18.4 mph 18.4 mph 70 % 0.00 in 0.0 W/m2 CLR
19:52 42.0 °F 33.3 °F 30.20 in NW 13.8 mph 13.8 mph 71 % 0.00 in 0.0 W/m2 CLR
19:57 42.0 °F 33.3 °F 30.20 in NNW 15.0 mph 15.0 mph 71 % 0.00 in 0.0 W/m2 CLR
20:02 42.0 °F 33.3 °F 30.19 in NNW 20.7 mph 20.7 mph 71 % 0.00 in 0.0 W/m2 CLR
20:07 42.0 °F 33.6 °F 30.19 in NW 19.6 mph 19.6 mph 72 % 0.00 in 0.0 W/m2 CLR
20:12 42.0 °F 33.3 °F 30.20 in WNW 15.0 mph 15.0 mph 71 % 0.00 in 0.0 W/m2 CLR
20:17 41.0 °F 32.3 °F 30.20 in NW 19.6 mph 19.6 mph 71 % 0.00 in 0.0 W/m2 CLR
20:22 41.0 °F 32.3 °F 30.20 in NW 15.0 mph 15.0 mph 71 % 0.00 in 0.0 W/m2 CLR
20:27 41.0 °F 32.7 °F 30.20 in NW 15.0 mph 15.0 mph 72 % 0.00 in 0.0 W/m2 CLR
20:32 41.0 °F 32.7 °F 30.20 in NW 15.0 mph 15.0 mph 72 % 0.00 in 0.0 W/m2 CLR
20:37 41.0 °F 33.0 °F 30.20 in NNW 16.0 mph 16.0 mph 73 % 0.00 in 0.0 W/m2 CLR
20:43 41.0 °F 33.0 °F 30.20 in NNW 17.3 mph 17.3 mph 73 % 0.00 in 0.0 W/m2 CLR
20:48 41.0 °F 33.0 °F 30.20 in NNW 12.7 mph 12.7 mph 73 % 0.00 in 0.0 W/m2 CLR
20:53 41.0 °F 33.0 °F 30.20 in NW 16.0 mph 16.0 mph 73 % 0.00 in 0.0 W/m2 CLR
20:58 41.0 °F 33.0 °F 30.20 in NNW 12.7 mph 12.7 mph 73 % 0.00 in 0.0 W/m2 CLR
21:03 41.0 °F 33.3 °F 30.20 in North 18.4 mph 18.4 mph 74 % 0.00 in 0.0 W/m2 CLR
21:08 41.0 °F 33.3 °F 30.21 in NW 16.1 mph 16.1 mph 74 % 0.00 in 0.0 W/m2 CLR
21:13 41.0 °F 33.7 °F 30.21 in NNW 18.4 mph 18.4 mph 75 % 0.00 in 0.0 W/m2 CLR
21:18 41.0 °F 33.7 °F 30.20 in NNW 16.0 mph 16.0 mph 75 % 0.00 in 0.0 W/m2 CLR
21:23 41.0 °F 33.7 °F 30.21 in NW 13.0 mph 13.0 mph 75 % 0.00 in 0.0 W/m2 CLR
21:28 41.0 °F 33.7 °F 30.21 in WNW 15.0 mph 15.0 mph 75 % 0.00 in 0.0 W/m2 CLR
21:33 41.0 °F 33.7 °F 30.21 in NW 15.0 mph 15.0 mph 75 % 0.00 in 0.0 W/m2 CLR
21:38 40.0 °F 32.7 °F 30.21 in NW 10.4 mph 10.4 mph 75 % 0.00 in 0.0 W/m2 CLR
21:43 40.0 °F 32.7 °F 30.21 in NW 16.1 mph 16.1 mph 75 % 0.00 in 0.0 W/m2 CLR
21:48 40.0 °F 32.7 °F 30.21 in NNW 16.1 mph 16.1 mph 75 % 0.00 in 0.0 W/m2 CLR
21:53 40.0 °F 33.0 °F 30.20 in NW 15.0 mph 15.0 mph 76 % 0.00 in 0.0 W/m2 CLR
21:58 40.0 °F 33.0 °F 30.21 in NW 16.1 mph 16.1 mph 76 % 0.00 in 0.0 W/m2 CLR
22:03 40.0 °F 33.0 °F 30.21 in North 12.7 mph 12.7 mph 76 % 0.00 in 0.0 W/m2 CLR
22:08 40.0 °F 33.0 °F 30.21 in NW 12.7 mph 12.7 mph 76 % 0.00 in 0.0 W/m2 CLR
22:13 40.0 °F 33.0 °F 30.21 in NW 15.0 mph 15.0 mph 76 % 0.00 in 0.0 W/m2 CLR
22:18 40.0 °F 33.0 °F 30.21 in WNW 16.1 mph 16.1 mph 76 % 0.00 in 0.0 W/m2 CLR
22:23 40.0 °F 33.0 °F 30.21 in WNW 10.4 mph 10.4 mph 76 % 0.00 in 0.0 W/m2 CLR
22:28 40.0 °F 33.0 °F 30.21 in West 11.5 mph 11.5 mph 76 % 0.00 in 0.0 W/m2 CLR
22:33 40.0 °F 33.0 °F 30.21 in WNW 10.4 mph 10.4 mph 76 % 0.00 in 0.0 W/m2 CLR
22:38 39.0 °F 32.4 °F 30.22 in West 10.4 mph 10.4 mph 77 % 0.00 in 0.0 W/m2 CLR
22:43 39.0 °F 32.4 °F 30.22 in West 9.2 mph 9.2 mph 77 % 0.00 in 0.0 W/m2 CLR
22:48 39.0 °F 32.7 °F 30.22 in WNW 8.1 mph 8.1 mph 78 % 0.00 in 0.0 W/m2 CLR
22:53 39.0 °F 32.7 °F 30.22 in West 10.4 mph 10.4 mph 78 % 0.00 in 0.0 W/m2 CLR
22:54 39.0 °F 32.7 °F 30.22 in West 9.2 mph 9.2 mph 78 % 0.00 in 0.0 W/m2 CLR
22:59 38.0 °F 32.1 °F 30.22 in WNW 10.4 mph 10.4 mph 79 % 0.00 in 0.0 W/m2 CLR
23:04 38.0 °F 32.1 °F 30.22 in NW 8.1 mph 8.1 mph 79 % 0.00 in 0.0 W/m2 CLR
23:09 38.0 °F 32.4 °F 30.22 in WNW 11.5 mph 11.5 mph 80 % 0.00 in 0.0 W/m2 CLR
23:14 38.0 °F 32.1 °F 30.22 in NW 10.4 mph 10.4 mph 79 % 0.00 in 0.0 W/m2 CLR
23:19 38.0 °F 32.4 °F 30.22 in NW 13.8 mph 13.8 mph 80 % 0.00 in 0.0 W/m2 CLR
23:24 38.0 °F 32.1 °F 30.22 in NW 9.2 mph 9.2 mph 79 % 0.00 in 0.0 W/m2 CLR
23:29 39.0 °F 33.0 °F 30.22 in NW 9.2 mph 9.2 mph 79 % 0.00 in 0.0 W/m2 CLR
23:34 39.0 °F 33.0 °F 30.21 in WNW 10.4 mph 10.4 mph 79 % 0.00 in 0.0 W/m2 CLR
23:39 39.0 °F 33.4 °F 30.21 in NW 11.5 mph 11.5 mph 80 % 0.00 in 0.0 W/m2 CLR
23:44 39.0 °F 33.0 °F 30.21 in NW 12.7 mph 12.7 mph 79 % 0.00 in 0.0 W/m2 CLR
23:49 39.0 °F 33.0 °F 30.21 in NW 11.5 mph 11.5 mph 79 % 0.00 in 0.0 W/m2 CLR
23:54 39.0 °F 33.4 °F 30.21 in WNW 13.8 mph 13.8 mph 80 % 0.00 in 0.0 W/m2 CLR
23:59 39.0 °F 33.4 °F 30.21 in WNW 10.4 mph 10.4 mph 80 % 0.00 in 0.0 W/m2 CLR
Lo Temps de Massalio
Compliments of Weather Underground - 1.25 mb